createdAt,value
2023-03-03T00:01:32.890Z,-1.40
2023-03-03T00:04:00.046Z,-1.30
2023-03-03T00:06:27.023Z,-1.30
2023-03-03T00:08:53.836Z,-1.30
2023-03-03T00:11:20.606Z,-1.30
2023-03-03T00:13:50.475Z,-1.30
2023-03-03T00:16:35.564Z,-1.30
2023-03-03T00:19:02.392Z,-1.30
2023-03-03T00:21:32.356Z,-1.30
2023-03-03T00:24:14.233Z,-1.20
2023-03-03T00:26:50.390Z,-1.20
2023-03-03T00:29:35.960Z,-1.20
2023-03-03T00:32:15.013Z,-1.20
2023-03-03T00:34:43.624Z,-1.20
2023-03-03T00:37:22.572Z,-1.20
2023-03-03T00:39:49.389Z,-1.20
2023-03-03T00:42:18.331Z,-1.20
2023-03-03T00:44:48.733Z,-1.20
2023-03-03T00:47:32.483Z,-1.20
2023-03-03T00:50:27.664Z,-1.20
2023-03-03T00:53:06.539Z,-1.20
2023-03-03T00:55:34.614Z,-1.20
2023-03-03T00:58:01.404Z,-1.30
2023-03-03T01:00:28.687Z,-1.30
2023-03-03T01:02:55.441Z,-1.30
2023-03-03T01:05:22.486Z,-1.40
2023-03-03T01:07:49.337Z,-1.40
2023-03-03T01:10:16.235Z,-1.40
2023-03-03T01:12:43.210Z,-1.50
2023-03-03T01:15:12.564Z,-1.50
2023-03-03T01:17:40.143Z,-1.50
2023-03-03T01:20:14.172Z,-1.50
2023-03-03T01:22:41.292Z,-1.50
2023-03-03T01:25:09.106Z,-1.50
2023-03-03T01:27:36.932Z,-1.50
2023-03-03T01:30:07.012Z,-1.50
2023-03-03T01:32:33.958Z,-1.50
2023-03-03T01:35:00.845Z,-1.50
2023-03-03T01:37:27.575Z,-1.50
2023-03-03T01:39:55.357Z,-1.60
2023-03-03T01:42:22.742Z,-1.60
2023-03-03T01:45:13.577Z,-1.60
2023-03-03T01:47:51.962Z,-1.70
2023-03-03T01:50:45.744Z,-1.60
2023-03-03T01:53:50.036Z,-1.70
2023-03-03T01:56:16.995Z,-1.80
2023-03-03T01:59:01.396Z,-1.80
2023-03-03T02:01:29.908Z,-1.80
2023-03-03T02:03:57.342Z,-1.80
2023-03-03T02:06:28.637Z,-1.80
2023-03-03T02:09:20.790Z,-1.80
2023-03-03T02:11:51.169Z,-1.80
2023-03-03T02:14:18.055Z,-1.80
2023-03-03T02:16:45.210Z,-1.80
2023-03-03T02:19:46.460Z,-1.80
2023-03-03T02:22:18.044Z,-1.80
2023-03-03T02:24:53.415Z,-1.80
2023-03-03T02:27:20.420Z,-1.80
2023-03-03T02:29:47.248Z,-1.80
2023-03-03T02:32:14.097Z,-1.80
2023-03-03T02:34:52.399Z,-1.80
2023-03-03T02:37:20.373Z,-1.80
2023-03-03T02:39:47.330Z,-1.80
2023-03-03T02:42:20.016Z,-1.90
2023-03-03T02:44:46.862Z,-1.90
2023-03-03T02:47:14.125Z,-1.80
2023-03-03T02:49:41.071Z,-1.80
2023-03-03T02:52:12.480Z,-1.80
2023-03-03T02:54:39.403Z,-1.80
2023-03-03T02:57:06.612Z,-1.80
2023-03-03T02:59:33.554Z,-1.80
2023-03-03T03:02:00.496Z,-1.80
2023-03-03T03:04:28.347Z,-1.80
2023-03-03T03:06:56.228Z,-1.80
2023-03-03T03:09:25.122Z,-1.80
2023-03-03T03:11:52.375Z,-1.80
2023-03-03T03:14:19.342Z,-1.80
2023-03-03T03:16:46.099Z,-1.80
2023-03-03T03:19:12.963Z,-1.90
2023-03-03T03:21:39.731Z,-1.90
2023-03-03T03:24:06.893Z,-2.00
2023-03-03T03:26:33.689Z,-2.00
2023-03-03T03:29:00.533Z,-2.00
2023-03-03T03:31:27.603Z,-2.00
2023-03-03T03:33:54.405Z,-2.00
2023-03-03T03:36:21.291Z,-2.10
2023-03-03T03:38:48.032Z,-2.10
2023-03-03T03:41:14.834Z,-2.10
2023-03-03T03:43:41.669Z,-2.10
2023-03-03T03:46:08.702Z,-2.10
2023-03-03T03:48:35.888Z,-2.20
2023-03-03T03:51:03.265Z,-2.20
2023-03-03T03:53:31.254Z,-2.20
2023-03-03T03:55:58.015Z,-2.20
2023-03-03T03:58:24.854Z,-2.20
2023-03-03T04:00:51.653Z,-2.20
2023-03-03T04:03:18.593Z,-2.20
2023-03-03T04:05:45.663Z,-2.20
2023-03-03T04:08:12.511Z,-2.20
2023-03-03T04:10:39.369Z,-2.20
2023-03-03T04:13:06.136Z,-2.20
2023-03-03T04:15:32.953Z,-2.20
2023-03-03T04:18:02.691Z,-2.20
2023-03-03T04:20:29.528Z,-2.20
2023-03-03T04:22:57.241Z,-2.20
2023-03-03T04:25:24.424Z,-2.20
2023-03-03T04:27:52.933Z,-2.20
2023-03-03T04:30:20.043Z,-2.20
2023-03-03T04:32:47.606Z,-2.10
2023-03-03T04:35:14.351Z,-2.10
2023-03-03T04:37:41.166Z,-2.10
2023-03-03T04:40:09.380Z,-2.10
2023-03-03T04:42:36.515Z,-2.00
2023-03-03T04:45:04.511Z,-2.00
2023-03-03T04:47:32.758Z,-1.90
2023-03-03T04:49:59.890Z,-1.90
2023-03-03T04:52:26.702Z,-1.90
2023-03-03T04:54:53.457Z,-1.80
2023-03-03T04:57:20.181Z,-1.80
2023-03-03T04:59:47.390Z,-1.80
2023-03-03T05:02:14.817Z,-1.80
2023-03-03T05:04:41.655Z,-1.70
2023-03-03T05:07:08.601Z,-1.70
2023-03-03T05:09:35.665Z,-1.70
2023-03-03T05:12:02.421Z,-1.70
2023-03-03T05:14:29.161Z,-1.70
2023-03-03T05:16:55.950Z,-1.70
2023-03-03T05:19:22.820Z,-1.70
2023-03-03T05:21:49.622Z,-1.70
2023-03-03T05:24:16.347Z,-1.60
2023-03-03T05:26:43.200Z,-1.60
2023-03-03T05:29:10.268Z,-1.60
2023-03-03T05:31:37.106Z,-1.60
2023-03-03T05:34:04.292Z,-1.70
2023-03-03T05:36:32.456Z,-1.60
2023-03-03T05:38:59.362Z,-1.70
2023-03-03T05:41:26.209Z,-1.60
2023-03-03T05:43:52.979Z,-1.70
2023-03-03T05:46:19.728Z,-1.60
2023-03-03T05:48:47.208Z,-1.60
2023-03-03T05:51:14.332Z,-1.60
2023-03-03T05:53:41.270Z,-1.60
2023-03-03T05:56:08.064Z,-1.50
2023-03-03T05:58:34.845Z,-1.40
2023-03-03T06:01:01.721Z,-1.40
2023-03-03T06:03:28.659Z,-1.40
2023-03-03T06:05:55.456Z,-1.50
2023-03-03T06:08:22.264Z,-1.50
2023-03-03T06:10:49.091Z,-1.60
2023-03-03T06:13:16.334Z,-1.60
2023-03-03T06:15:43.382Z,-1.50
2023-03-03T06:18:10.343Z,-1.50
2023-03-03T06:20:38.641Z,-1.50
2023-03-03T06:23:05.979Z,-1.50
2023-03-03T06:25:35.680Z,-1.50
2023-03-03T06:28:03.231Z,-1.40
2023-03-03T06:30:30.717Z,-1.40
2023-03-03T06:32:57.613Z,-1.40
2023-03-03T06:35:24.561Z,-1.40
2023-03-03T06:37:51.751Z,-1.30
2023-03-03T06:40:18.807Z,-1.30
2023-03-03T06:42:45.956Z,-1.20
2023-03-03T06:45:13.264Z,-1.20
2023-03-03T06:47:40.153Z,-1.10
2023-03-03T06:50:07.917Z,-1.10
2023-03-03T06:52:34.827Z,-1.10
2023-03-03T06:55:10.676Z,-1.00
2023-03-03T06:57:37.916Z,-1.00
2023-03-03T07:00:20.461Z,-1.00
2023-03-03T07:02:53.870Z,-1.00
2023-03-03T07:05:21.774Z,-0.90
2023-03-03T07:07:48.557Z,-0.90
2023-03-03T07:10:29.262Z,-0.80
2023-03-03T07:13:02.901Z,-0.70
2023-03-03T07:15:39.044Z,-0.60
2023-03-03T07:18:32.687Z,-0.60
2023-03-03T07:21:06.762Z,-0.50
2023-03-03T07:23:42.858Z,-0.40
2023-03-03T07:26:18.945Z,-0.40
2023-03-03T07:28:55.792Z,-0.40
2023-03-03T07:31:31.198Z,-0.30
2023-03-03T07:34:00.552Z,-0.30
2023-03-03T07:36:35.329Z,-0.20
2023-03-03T07:39:23.582Z,-0.20
2023-03-03T07:41:52.082Z,-0.10
2023-03-03T07:44:24.812Z,-0.10
2023-03-03T07:46:52.781Z,0.00
2023-03-03T07:49:23.450Z,0.00
2023-03-03T07:51:57.931Z,0.10
2023-03-03T07:54:50.745Z,0.10
2023-03-03T07:57:27.820Z,0.20
2023-03-03T08:00:02.788Z,0.20
2023-03-03T08:02:43.700Z,0.20
2023-03-03T08:05:30.422Z,0.20
2023-03-03T08:08:31.224Z,0.20
2023-03-03T08:11:03.154Z,0.30
2023-03-03T08:13:41.749Z,0.30
2023-03-03T08:16:11.621Z,0.30
2023-03-03T08:18:49.991Z,0.40
2023-03-03T08:21:22.459Z,0.40
2023-03-03T08:23:51.669Z,0.50
2023-03-03T08:26:20.129Z,0.50
2023-03-03T08:28:47.816Z,0.60
2023-03-03T08:31:22.535Z,0.60
2023-03-03T08:33:54.950Z,0.60
2023-03-03T08:36:21.819Z,0.60
2023-03-03T08:38:48.705Z,0.70
2023-03-03T08:41:15.735Z,0.80
2023-03-03T08:43:45.640Z,0.70
2023-03-03T08:46:12.674Z,0.60
2023-03-03T08:48:39.871Z,0.60
2023-03-03T08:51:06.776Z,0.50
2023-03-03T08:53:36.507Z,0.50
2023-03-03T08:56:05.060Z,0.50
2023-03-03T08:58:35.412Z,0.50
2023-03-03T09:01:02.652Z,0.60
2023-03-03T09:03:30.146Z,0.60
2023-03-03T09:05:57.121Z,0.60
2023-03-03T09:08:23.996Z,0.60
2023-03-03T09:10:50.859Z,0.60
2023-03-03T09:13:20.324Z,0.60
2023-03-03T09:15:48.990Z,0.50
2023-03-03T09:18:31.533Z,0.50
2023-03-03T09:20:58.648Z,0.50
2023-03-03T09:23:35.103Z,0.50
2023-03-03T09:26:30.697Z,0.40
2023-03-03T09:29:15.986Z,0.30
2023-03-03T09:31:45.775Z,0.30
2023-03-03T09:34:37.523Z,0.30
2023-03-03T09:37:23.179Z,0.20
2023-03-03T09:39:59.275Z,0.10
2023-03-03T09:43:07.489Z,0.10
2023-03-03T09:45:37.322Z,0.20
2023-03-03T09:48:20.400Z,0.20
2023-03-03T09:51:18.502Z,0.30
2023-03-03T09:54:03.521Z,0.30
2023-03-03T09:56:39.911Z,0.30
2023-03-03T09:59:34.153Z,0.40
2023-03-03T10:02:28.472Z,0.40
2023-03-03T10:05:35.550Z,0.30
2023-03-03T10:08:27.103Z,0.30
2023-03-03T10:11:13.513Z,0.30
2023-03-03T10:14:00.245Z,0.30
2023-03-03T10:17:09.788Z,0.30
2023-03-03T10:19:46.761Z,0.30
2023-03-03T10:22:41.409Z,0.30
2023-03-03T10:25:26.821Z,0.30
2023-03-03T10:27:59.991Z,0.30
2023-03-03T10:30:42.694Z,0.30
2023-03-03T10:33:23.054Z,0.20
2023-03-03T10:36:07.614Z,0.20
2023-03-03T10:38:49.532Z,0.20
2023-03-03T10:41:53.587Z,0.30
2023-03-03T10:44:45.502Z,0.40
2023-03-03T10:47:40.660Z,0.40
2023-03-03T10:50:22.847Z,0.50
2023-03-03T10:53:17.073Z,0.50
2023-03-03T10:56:09.703Z,0.50
2023-03-03T10:58:52.686Z,0.50
2023-03-03T11:01:45.189Z,0.50
2023-03-03T11:04:41.442Z,0.40
2023-03-03T11:07:17.268Z,0.40
2023-03-03T11:10:01.856Z,0.30
2023-03-03T11:12:58.703Z,0.20
2023-03-03T11:15:46.939Z,0.20
2023-03-03T11:18:33.961Z,0.10
2023-03-03T11:21:22.555Z,0.10
2023-03-03T11:23:53.398Z,0.10
2023-03-03T11:26:49.426Z,0.10
2023-03-03T11:29:36.759Z,0.00
2023-03-03T11:32:35.746Z,0.00
2023-03-03T11:35:27.293Z,0.00
2023-03-03T11:38:06.272Z,-0.10
2023-03-03T11:40:50.484Z,-0.10
2023-03-03T11:43:37.454Z,-0.10
2023-03-03T11:46:13.147Z,0.00
2023-03-03T11:49:12.987Z,0.00
2023-03-03T11:52:04.526Z,0.00
2023-03-03T11:54:48.361Z,0.00
2023-03-03T11:57:15.242Z,0.00
2023-03-03T11:59:55.009Z,0.00
2023-03-03T12:02:30.530Z,0.00
2023-03-03T12:05:25.190Z,-0.10
2023-03-03T12:08:03.661Z,-0.10
2023-03-03T12:10:36.292Z,-0.10
2023-03-03T12:13:20.316Z,0.00
2023-03-03T12:15:58.805Z,0.00
2023-03-03T12:18:45.496Z,0.10
2023-03-03T12:21:33.494Z,0.00
2023-03-03T12:24:27.055Z,0.00
2023-03-03T12:27:08.953Z,0.00
2023-03-03T12:30:10.793Z,0.00
2023-03-03T12:32:43.596Z,0.00
2023-03-03T12:35:28.789Z,-0.10
2023-03-03T12:38:18.139Z,-0.10
2023-03-03T12:41:09.990Z,-0.10
2023-03-03T12:43:55.975Z,-0.10
2023-03-03T12:46:44.308Z,-0.10
2023-03-03T12:49:11.391Z,-0.10
2023-03-03T12:51:50.466Z,-0.10
2023-03-03T12:54:40.895Z,-0.10
2023-03-03T12:57:24.093Z,0.00
2023-03-03T12:59:59.418Z,-0.10
2023-03-03T13:02:35.086Z,-0.10
2023-03-03T13:05:11.744Z,-0.10
2023-03-03T13:08:15.726Z,0.00
2023-03-03T13:10:46.618Z,0.00
2023-03-03T13:13:27.741Z,0.00
2023-03-03T13:16:06.962Z,0.00
2023-03-03T13:18:53.598Z,0.00
2023-03-03T13:21:47.712Z,-0.10
2023-03-03T13:24:26.885Z,-0.10
2023-03-03T13:27:42.490Z,-0.10
2023-03-03T13:30:09.605Z,-0.10
2023-03-03T13:32:46.888Z,-0.10
2023-03-03T13:35:35.559Z,-0.10
2023-03-03T13:38:04.064Z,-0.10
2023-03-03T13:40:42.890Z,-0.10
2023-03-03T13:43:19.848Z,-0.10
2023-03-03T13:45:58.675Z,-0.10
2023-03-03T13:48:37.531Z,-0.10
2023-03-03T13:51:43.141Z,-0.10
2023-03-03T13:54:40.326Z,-0.10
2023-03-03T13:57:26.206Z,-0.10
2023-03-03T14:00:02.378Z,-0.20
2023-03-03T14:02:59.223Z,-0.20
2023-03-03T14:05:28.852Z,-0.10
2023-03-03T14:08:02.820Z,-0.10
2023-03-03T14:10:41.884Z,-0.20
2023-03-03T14:13:12.242Z,-0.20
2023-03-03T14:16:05.458Z,-0.20
2023-03-03T14:18:44.644Z,-0.20
2023-03-03T14:21:18.095Z,-0.20
2023-03-03T14:24:11.494Z,-0.20
2023-03-03T14:26:56.434Z,-0.10
2023-03-03T14:29:26.176Z,-0.10
2023-03-03T14:31:58.267Z,-0.10
2023-03-03T14:35:02.488Z,-0.10
2023-03-03T14:37:43.543Z,-0.20
2023-03-03T14:40:16.429Z,-0.20
2023-03-03T14:42:53.546Z,-0.20
2023-03-03T14:45:39.790Z,-0.20
2023-03-03T14:48:17.420Z,-0.20
2023-03-03T14:50:53.829Z,-0.10
2023-03-03T14:53:34.444Z,-0.10
2023-03-03T14:56:25.178Z,-0.10
2023-03-03T14:59:20.896Z,-0.10
2023-03-03T15:01:47.848Z,-0.10
2023-03-03T15:04:14.625Z,0.00
2023-03-03T15:06:47.831Z,0.00
2023-03-03T15:09:37.504Z,0.00
2023-03-03T15:12:19.304Z,0.00
2023-03-03T15:14:48.987Z,0.00
2023-03-03T15:17:39.839Z,0.00
2023-03-03T15:20:44.332Z,0.00
2023-03-03T15:23:20.124Z,0.00
2023-03-03T15:26:05.741Z,-0.10
2023-03-03T15:29:14.771Z,0.00
2023-03-03T15:32:23.499Z,-0.10
2023-03-03T15:35:13.533Z,-0.10
2023-03-03T15:37:40.317Z,-0.10
2023-03-03T15:40:17.470Z,-0.10
2023-03-03T15:43:24.549Z,-0.10
2023-03-03T15:46:16.144Z,-0.10
2023-03-03T15:49:04.073Z,-0.10
2023-03-03T15:52:03.191Z,0.00
2023-03-03T15:54:49.117Z,-0.10
2023-03-03T15:57:45.170Z,-0.10
2023-03-03T16:00:37.104Z,-0.10
2023-03-03T16:03:35.507Z,-0.10
2023-03-03T16:06:28.803Z,-0.10
2023-03-03T16:09:07.472Z,-0.10
2023-03-03T16:11:53.016Z,-0.10
2023-03-03T16:14:20.047Z,-0.10
2023-03-03T16:17:04.131Z,0.00
2023-03-03T16:19:45.553Z,0.00
2023-03-03T16:22:54.829Z,0.00
2023-03-03T16:25:59.724Z,0.00
2023-03-03T16:28:58.151Z,0.00
2023-03-03T16:31:36.358Z,0.00
2023-03-03T16:34:12.285Z,0.00
2023-03-03T16:37:16.258Z,0.00
2023-03-03T16:39:55.353Z,-0.10
2023-03-03T16:42:39.865Z,0.00
2023-03-03T16:45:24.453Z,0.00
2023-03-03T16:48:08.269Z,0.00
2023-03-03T16:51:12.565Z,0.00
2023-03-03T16:53:54.238Z,0.00
2023-03-03T16:56:32.186Z,0.00
2023-03-03T16:59:01.850Z,-0.10
2023-03-03T17:01:56.295Z,-0.10
2023-03-03T17:05:05.138Z,-0.10
2023-03-03T17:07:50.748Z,-0.10
2023-03-03T17:10:28.448Z,-0.10
2023-03-03T17:12:57.987Z,-0.10
2023-03-03T17:15:38.538Z,0.00
2023-03-03T17:18:12.647Z,0.00
2023-03-03T17:20:58.561Z,0.00
2023-03-03T17:24:03.879Z,0.00
2023-03-03T17:26:30.741Z,0.00
2023-03-03T17:29:19.124Z,0.00
2023-03-03T17:32:08.700Z,-0.10
2023-03-03T17:34:48.063Z,-0.10
2023-03-03T17:37:32.402Z,-0.10
2023-03-03T17:40:21.973Z,-0.10
2023-03-03T17:43:28.935Z,-0.10
2023-03-03T17:46:02.043Z,-0.10
2023-03-03T17:48:50.093Z,-0.10
2023-03-03T17:51:37.930Z,0.00
2023-03-03T17:54:19.072Z,0.00
2023-03-03T17:57:10.644Z,0.00
2023-03-03T18:00:03.009Z,0.00
2023-03-03T18:02:41.913Z,0.00
2023-03-03T18:05:20.527Z,0.10
2023-03-03T18:07:52.329Z,0.10
2023-03-03T18:10:43.961Z,0.10
2023-03-03T18:13:38.730Z,0.10
2023-03-03T18:16:24.105Z,0.10
2023-03-03T18:19:11.661Z,0.20
2023-03-03T18:21:57.278Z,0.20
2023-03-03T18:24:38.270Z,0.20
2023-03-03T18:27:23.706Z,0.20
2023-03-03T18:30:17.716Z,0.20
2023-03-03T18:32:56.584Z,0.20
2023-03-03T18:35:44.136Z,0.20
2023-03-03T18:38:16.944Z,0.20
2023-03-03T18:41:00.747Z,0.20
2023-03-03T18:43:45.954Z,0.20
2023-03-03T18:46:35.645Z,0.30
2023-03-03T18:49:10.698Z,0.30
2023-03-03T18:51:40.996Z,0.20
2023-03-03T18:54:14.298Z,0.20
2023-03-03T18:56:51.763Z,0.30
2023-03-03T18:59:30.698Z,0.20
2023-03-03T19:02:16.102Z,0.30
2023-03-03T19:04:56.584Z,0.30
2023-03-03T19:07:29.938Z,0.30
2023-03-03T19:09:58.276Z,0.30
2023-03-03T19:12:53.214Z,0.30
2023-03-03T19:15:33.705Z,0.40
2023-03-03T19:18:13.350Z,0.40
2023-03-03T19:20:44.177Z,0.40
2023-03-03T19:23:31.510Z,0.40
2023-03-03T19:26:20.137Z,0.40
2023-03-03T19:29:13.255Z,0.50
2023-03-03T19:32:05.016Z,0.50
2023-03-03T19:34:43.300Z,0.50
2023-03-03T19:37:43.730Z,0.50
2023-03-03T19:40:38.992Z,0.50
2023-03-03T19:43:08.760Z,0.50
2023-03-03T19:46:08.861Z,0.50
2023-03-03T19:48:54.410Z,0.50
2023-03-03T19:51:55.713Z,0.50
2023-03-03T19:54:39.148Z,0.50
2023-03-03T19:57:19.417Z,0.50
2023-03-03T19:59:52.180Z,0.50
2023-03-03T20:02:55.337Z,0.50
2023-03-03T20:05:47.098Z,0.60
2023-03-03T20:08:42.929Z,0.60
2023-03-03T20:11:13.017Z,0.60
2023-03-03T20:13:45.445Z,0.60
2023-03-03T20:16:23.842Z,0.60
2023-03-03T20:19:19.975Z,0.60
2023-03-03T20:22:06.032Z,0.60
2023-03-03T20:24:51.521Z,0.60
2023-03-03T20:27:36.093Z,0.60
2023-03-03T20:30:15.660Z,0.60
2023-03-03T20:33:23.511Z,0.60
2023-03-03T20:36:23.350Z,0.70
2023-03-03T20:39:04.733Z,0.70
2023-03-03T20:41:50.175Z,0.70
2023-03-03T20:45:01.847Z,0.70
2023-03-03T20:47:56.904Z,0.70
2023-03-03T20:50:23.617Z,0.70
2023-03-03T20:53:02.929Z,0.70
2023-03-03T20:55:43.937Z,0.70
2023-03-03T20:58:50.537Z,0.70
2023-03-03T21:01:31.342Z,0.70
2023-03-03T21:04:21.971Z,0.70
2023-03-03T21:06:49.646Z,0.70
2023-03-03T21:09:39.010Z,0.70
2023-03-03T21:12:29.889Z,0.80
2023-03-03T21:15:05.509Z,0.80
2023-03-03T21:17:32.463Z,0.80
2023-03-03T21:20:33.986Z,0.80
2023-03-03T21:23:03.002Z,0.80
2023-03-03T21:25:40.413Z,0.80
2023-03-03T21:28:29.716Z,0.80
2023-03-03T21:31:05.531Z,0.80
2023-03-03T21:33:54.368Z,0.80
2023-03-03T21:36:36.010Z,0.80
2023-03-03T21:39:28.985Z,0.80
2023-03-03T21:42:09.092Z,0.80
2023-03-03T21:44:54.838Z,0.80
2023-03-03T21:47:27.777Z,0.90
2023-03-03T21:49:54.981Z,0.80
2023-03-03T21:52:22.909Z,0.80
2023-03-03T21:54:51.372Z,0.90
2023-03-03T21:57:18.949Z,0.90
2023-03-03T21:59:46.168Z,0.90
2023-03-03T22:02:13.466Z,0.90
2023-03-03T22:04:41.236Z,0.90
2023-03-03T22:07:11.339Z,0.90
2023-03-03T22:09:38.536Z,0.90
2023-03-03T22:12:06.895Z,0.90
2023-03-03T22:14:34.234Z,0.90
2023-03-03T22:17:01.464Z,0.90
2023-03-03T22:19:29.575Z,0.90
2023-03-03T22:21:56.464Z,0.90
2023-03-03T22:24:23.369Z,0.90
2023-03-03T22:26:50.457Z,0.90
2023-03-03T22:29:22.696Z,1.00
2023-03-03T22:31:50.424Z,1.00
2023-03-03T22:34:19.990Z,0.90
2023-03-03T22:36:46.877Z,1.00
2023-03-03T22:39:16.668Z,1.00
2023-03-03T22:41:44.694Z,1.00
2023-03-03T22:44:12.510Z,1.00
2023-03-03T22:46:39.724Z,1.00
2023-03-03T22:49:12.582Z,1.00
2023-03-03T22:51:39.544Z,1.00
2023-03-03T22:54:06.762Z,1.00
2023-03-03T22:56:33.771Z,1.00
2023-03-03T22:59:00.776Z,1.00
2023-03-03T23:01:27.981Z,1.00
2023-03-03T23:03:55.175Z,1.00
2023-03-03T23:06:24.003Z,0.90
2023-03-03T23:08:50.764Z,1.00
2023-03-03T23:11:17.614Z,1.00
2023-03-03T23:13:44.621Z,1.00
2023-03-03T23:16:12.718Z,1.00
2023-03-03T23:18:39.811Z,1.00
2023-03-03T23:21:06.563Z,1.00
2023-03-03T23:23:33.694Z,1.10
2023-03-03T23:26:01.051Z,1.00
2023-03-03T23:28:27.782Z,1.00
2023-03-03T23:30:54.617Z,1.00
2023-03-03T23:33:21.555Z,1.00
2023-03-03T23:35:49.972Z,1.00
2023-03-03T23:38:17.949Z,1.00
2023-03-03T23:40:48.953Z,1.00
2023-03-03T23:43:15.813Z,1.00
2023-03-03T23:45:42.839Z,1.00
2023-03-03T23:48:10.066Z,1.00
2023-03-03T23:50:38.029Z,1.10
2023-03-03T23:53:08.057Z,1.00
2023-03-03T23:55:36.281Z,1.10
2023-03-03T23:58:04.092Z,1.10
